sensor_id;sensor_type;location;lat;lon;timestamp;P1;durP1;ratioP1;P2;durP2;ratioP2
21987;SDS011;11158;53.404;-1.510;2023-07-02T00:00:38;10.30;;;4.47;;
21987;SDS011;11158;53.404;-1.510;2023-07-02T00:03:22;13.20;;;4.72;;
21987;SDS011;11158;53.404;-1.510;2023-07-02T00:06:08;12.27;;;4.63;;
21987;SDS011;11158;53.404;-1.510;2023-07-02T00:08:52;14.73;;;4.80;;
21987;SDS011;11158;53.404;-1.510;2023-07-02T00:11:40;13.10;;;5.45;;
21987;SDS011;11158;53.404;-1.510;2023-07-02T00:14:25;16.83;;;4.93;;
21987;SDS011;11158;53.404;-1.510;2023-07-02T00:17:09;12.98;;;5.00;;
21987;SDS011;11158;53.404;-1.510;2023-07-02T00:19:57;16.65;;;5.18;;
21987;SDS011;11158;53.404;-1.510;2023-07-02T00:22:46;14.25;;;4.72;;
21987;SDS011;11158;53.404;-1.510;2023-07-02T00:25:30;16.45;;;4.72;;
21987;SDS011;11158;53.404;-1.510;2023-07-02T00:28:14;20.38;;;5.32;;
21987;SDS011;11158;53.404;-1.510;2023-07-02T00:30:58;15.85;;;5.05;;
21987;SDS011;11158;53.404;-1.510;2023-07-02T00:33:43;12.75;;;4.90;;
21987;SDS011;11158;53.404;-1.510;2023-07-02T00:36:27;10.93;;;4.38;;
21987;SDS011;11158;53.404;-1.510;2023-07-02T00:39:12;13.68;;;4.60;;
21987;SDS011;11158;53.404;-1.510;2023-07-02T00:42:00;15.95;;;4.65;;
21987;SDS011;11158;53.404;-1.510;2023-07-02T00:44:47;13.07;;;4.30;;
21987;SDS011;11158;53.404;-1.510;2023-07-02T00:47:35;13.02;;;4.85;;
21987;SDS011;11158;53.404;-1.510;2023-07-02T00:50:22;12.13;;;4.07;;
21987;SDS011;11158;53.404;-1.510;2023-07-02T00:53:07;12.05;;;3.83;;
21987;SDS011;11158;53.404;-1.510;2023-07-02T00:55:52;13.60;;;4.72;;
21987;SDS011;11158;53.404;-1.510;2023-07-02T00:58:37;13.93;;;4.05;;
21987;SDS011;11158;53.404;-1.510;2023-07-02T01:01:24;10.73;;;4.20;;
21987;SDS011;11158;53.404;-1.510;2023-07-02T01:04:11;12.63;;;4.15;;
21987;SDS011;11158;53.404;-1.510;2023-07-02T01:06:57;13.20;;;4.03;;
21987;SDS011;11158;53.404;-1.510;2023-07-02T01:09:41;12.07;;;3.92;;
21987;SDS011;11158;53.404;-1.510;2023-07-02T01:12:25;17.77;;;4.97;;
21987;SDS011;11158;53.404;-1.510;2023-07-02T01:15:11;7.38;;;2.95;;
21987;SDS011;11158;53.404;-1.510;2023-07-02T01:17:58;12.30;;;3.85;;
21987;SDS011;11158;53.404;-1.510;2023-07-02T01:20:43;9.98;;;3.65;;
21987;SDS011;11158;53.404;-1.510;2023-07-02T01:23:28;11.25;;;3.97;;
21987;SDS011;11158;53.404;-1.510;2023-07-02T01:26:12;11.57;;;3.70;;
21987;SDS011;11158;53.404;-1.510;2023-07-02T01:28:56;11.13;;;3.88;;
21987;SDS011;11158;53.404;-1.510;2023-07-02T01:31:40;9.13;;;3.42;;
21987;SDS011;11158;53.404;-1.510;2023-07-02T01:34:25;9.57;;;4.20;;
21987;SDS011;11158;53.404;-1.510;2023-07-02T01:37:09;9.38;;;3.53;;
21987;SDS011;11158;53.404;-1.510;2023-07-02T01:39:54;15.63;;;3.65;;
21987;SDS011;11158;53.404;-1.510;2023-07-02T01:42:38;11.57;;;3.85;;
21987;SDS011;11158;53.404;-1.510;2023-07-02T01:45:22;9.63;;;3.40;;
21987;SDS011;11158;53.404;-1.510;2023-07-02T01:48:06;9.50;;;3.40;;
21987;SDS011;11158;53.404;-1.510;2023-07-02T01:50:50;13.93;;;3.45;;
21987;SDS011;11158;53.404;-1.510;2023-07-02T01:53:34;10.43;;;3.90;;
21987;SDS011;11158;53.404;-1.510;2023-07-02T01:56:18;15.95;;;3.70;;
21987;SDS011;11158;53.404;-1.510;2023-07-02T01:59:03;13.70;;;4.45;;
21987;SDS011;11158;53.404;-1.510;2023-07-02T02:01:47;13.93;;;4.03;;
21987;SDS011;11158;53.404;-1.510;2023-07-02T02:04:31;7.90;;;3.30;;
21987;SDS011;11158;53.404;-1.510;2023-07-02T02:07:15;22.08;;;4.70;;
21987;SDS011;11158;53.404;-1.510;2023-07-02T02:10:00;16.25;;;3.67;;
21987;SDS011;11158;53.404;-1.510;2023-07-02T02:12:44;11.77;;;4.00;;
21987;SDS011;11158;53.404;-1.510;2023-07-02T02:15:28;10.30;;;3.72;;
21987;SDS011;11158;53.404;-1.510;2023-07-02T02:18:13;16.83;;;4.50;;
21987;SDS011;11158;53.404;-1.510;2023-07-02T02:20:57;20.80;;;4.93;;
21987;SDS011;11158;53.404;-1.510;2023-07-02T02:23:41;15.38;;;4.00;;
21987;SDS011;11158;53.404;-1.510;2023-07-02T02:26:25;11.60;;;4.15;;
21987;SDS011;11158;53.404;-1.510;2023-07-02T02:29:09;13.88;;;4.13;;
21987;SDS011;11158;53.404;-1.510;2023-07-02T02:31:54;12.68;;;4.10;;
21987;SDS011;11158;53.404;-1.510;2023-07-02T02:34:38;11.75;;;4.32;;
21987;SDS011;11158;53.404;-1.510;2023-07-02T02:37:22;11.07;;;3.40;;
21987;SDS011;11158;53.404;-1.510;2023-07-02T02:40:07;13.05;;;4.07;;
21987;SDS011;11158;53.404;-1.510;2023-07-02T02:42:54;13.27;;;3.70;;
21987;SDS011;11158;53.404;-1.510;2023-07-02T02:45:39;9.02;;;3.58;;
21987;SDS011;11158;53.404;-1.510;2023-07-02T02:48:23;13.07;;;3.97;;
21987;SDS011;11158;53.404;-1.510;2023-07-02T02:51:07;15.05;;;4.05;;
21987;SDS011;11158;53.404;-1.510;2023-07-02T02:53:51;11.02;;;4.05;;
21987;SDS011;11158;53.404;-1.510;2023-07-02T02:56:35;9.10;;;3.30;;
21987;SDS011;11158;53.404;-1.510;2023-07-02T02:59:19;11.02;;;3.92;;
21987;SDS011;11158;53.404;-1.510;2023-07-02T03:02:03;11.18;;;3.80;;
21987;SDS011;11158;53.404;-1.510;2023-07-02T03:04:47;11.73;;;4.30;;
21987;SDS011;11158;53.404;-1.510;2023-07-02T03:07:33;15.13;;;3.97;;
21987;SDS011;11158;53.404;-1.510;2023-07-02T03:10:17;13.00;;;4.32;;
21987;SDS011;11158;53.404;-1.510;2023-07-02T03:13:01;10.10;;;4.47;;
21987;SDS011;11158;53.404;-1.510;2023-07-02T03:15:46;8.63;;;3.67;;
21987;SDS011;11158;53.404;-1.510;2023-07-02T03:18:30;12.68;;;4.00;;
21987;SDS011;11158;53.404;-1.510;2023-07-02T03:21:14;12.50;;;3.55;;
21987;SDS011;11158;53.404;-1.510;2023-07-02T03:23:58;13.70;;;3.70;;
21987;SDS011;11158;53.404;-1.510;2023-07-02T03:26:42;9.82;;;3.08;;
21987;SDS011;11158;53.404;-1.510;2023-07-02T03:29:27;12.77;;;4.15;;
21987;SDS011;11158;53.404;-1.510;2023-07-02T03:32:11;11.32;;;4.00;;
21987;SDS011;11158;53.404;-1.510;2023-07-02T03:34:55;9.60;;;3.25;;
21987;SDS011;11158;53.404;-1.510;2023-07-02T03:37:39;8.68;;;3.53;;
21987;SDS011;11158;53.404;-1.510;2023-07-02T03:40:27;15.93;;;3.97;;
21987;SDS011;11158;53.404;-1.510;2023-07-02T03:43:11;12.63;;;4.13;;
21987;SDS011;11158;53.404;-1.510;2023-07-02T03:45:57;10.32;;;3.92;;
21987;SDS011;11158;53.404;-1.510;2023-07-02T03:48:41;10.07;;;3.47;;
21987;SDS011;11158;53.404;-1.510;2023-07-02T03:51:25;11.23;;;3.70;;
21987;SDS011;11158;53.404;-1.510;2023-07-02T03:54:09;8.00;;;3.25;;
21987;SDS011;11158;53.404;-1.510;2023-07-02T03:56:53;11.98;;;4.10;;
21987;SDS011;11158;53.404;-1.510;2023-07-02T03:59:38;12.77;;;3.58;;
21987;SDS011;11158;53.404;-1.510;2023-07-02T04:02:22;11.93;;;4.00;;
21987;SDS011;11158;53.404;-1.510;2023-07-02T04:05:06;10.95;;;3.13;;
21987;SDS011;11158;53.404;-1.510;2023-07-02T04:07:50;10.57;;;3.42;;
21987;SDS011;11158;53.404;-1.510;2023-07-02T04:10:34;12.75;;;4.47;;
21987;SDS011;11158;53.404;-1.510;2023-07-02T04:13:18;12.20;;;4.22;;
21987;SDS011;11158;53.404;-1.510;2023-07-02T04:16:02;11.27;;;4.47;;
21987;SDS011;11158;53.404;-1.510;2023-07-02T04:18:47;15.23;;;4.70;;
21987;SDS011;11158;53.404;-1.510;2023-07-02T04:21:31;10.90;;;3.97;;
21987;SDS011;11158;53.404;-1.510;2023-07-02T04:24:15;9.50;;;4.03;;
21987;SDS011;11158;53.404;-1.510;2023-07-02T04:26:59;10.00;;;3.67;;
21987;SDS011;11158;53.404;-1.510;2023-07-02T04:29:44;14.93;;;3.70;;
21987;SDS011;11158;53.404;-1.510;2023-07-02T04:32:28;17.90;;;4.72;;
21987;SDS011;11158;53.404;-1.510;2023-07-02T04:35:12;11.45;;;4.13;;
21987;SDS011;11158;53.404;-1.510;2023-07-02T04:37:57;12.25;;;3.72;;
21987;SDS011;11158;53.404;-1.510;2023-07-02T04:40:42;8.13;;;3.50;;
21987;SDS011;11158;53.404;-1.510;2023-07-02T04:43:28;12.93;;;3.70;;
21987;SDS011;11158;53.404;-1.510;2023-07-02T04:46:15;11.02;;;3.90;;
21987;SDS011;11158;53.404;-1.510;2023-07-02T04:49:01;12.13;;;3.47;;
21987;SDS011;11158;53.404;-1.510;2023-07-02T04:51:45;11.88;;;3.67;;
21987;SDS011;11158;53.404;-1.510;2023-07-02T04:54:29;12.68;;;4.05;;
21987;SDS011;11158;53.404;-1.510;2023-07-02T04:57:13;12.88;;;4.13;;
21987;SDS011;11158;53.404;-1.510;2023-07-02T04:59:58;10.98;;;3.63;;
21987;SDS011;11158;53.404;-1.510;2023-07-02T05:02:42;10.45;;;3.55;;
21987;SDS011;11158;53.404;-1.510;2023-07-02T05:05:26;8.30;;;3.38;;
21987;SDS011;11158;53.404;-1.510;2023-07-02T05:08:10;8.23;;;2.58;;
21987;SDS011;11158;53.404;-1.510;2023-07-02T05:10:54;8.43;;;3.08;;
21987;SDS011;11158;53.404;-1.510;2023-07-02T05:13:38;8.50;;;3.42;;
21987;SDS011;11158;53.404;-1.510;2023-07-02T05:16:22;6.40;;;3.15;;
21987;SDS011;11158;53.404;-1.510;2023-07-02T05:19:06;10.73;;;3.10;;
21987;SDS011;11158;53.404;-1.510;2023-07-02T05:21:50;9.60;;;3.70;;
21987;SDS011;11158;53.404;-1.510;2023-07-02T05:24:34;9.98;;;3.22;;
21987;SDS011;11158;53.404;-1.510;2023-07-02T05:27:18;9.30;;;3.33;;
21987;SDS011;11158;53.404;-1.510;2023-07-02T05:30:03;8.75;;;3.13;;
21987;SDS011;11158;53.404;-1.510;2023-07-02T05:32:47;10.48;;;3.30;;
21987;SDS011;11158;53.404;-1.510;2023-07-02T05:35:31;7.43;;;2.80;;
21987;SDS011;11158;53.404;-1.510;2023-07-02T05:38:17;9.93;;;3.13;;
21987;SDS011;11158;53.404;-1.510;2023-07-02T05:41:02;9.43;;;3.53;;
21987;SDS011;11158;53.404;-1.510;2023-07-02T05:43:47;8.73;;;3.47;;
21987;SDS011;11158;53.404;-1.510;2023-07-02T05:46:32;8.38;;;3.13;;
21987;SDS011;11158;53.404;-1.510;2023-07-02T05:49:15;8.43;;;3.08;;
21987;SDS011;11158;53.404;-1.510;2023-07-02T05:52:00;12.25;;;3.15;;
21987;SDS011;11158;53.404;-1.510;2023-07-02T05:54:44;7.70;;;2.92;;
21987;SDS011;11158;53.404;-1.510;2023-07-02T05:57:28;9.68;;;3.22;;
21987;SDS011;11158;53.404;-1.510;2023-07-02T06:00:12;10.75;;;3.15;;
21987;SDS011;11158;53.404;-1.510;2023-07-02T06:02:56;12.80;;;2.85;;
21987;SDS011;11158;53.404;-1.510;2023-07-02T06:05:40;9.93;;;3.30;;
21987;SDS011;11158;53.404;-1.510;2023-07-02T06:08:24;8.65;;;3.20;;
21987;SDS011;11158;53.404;-1.510;2023-07-02T06:11:09;14.50;;;3.20;;
21987;SDS011;11158;53.404;-1.510;2023-07-02T06:13:54;7.82;;;2.70;;
21987;SDS011;11158;53.404;-1.510;2023-07-02T06:16:39;12.82;;;2.85;;
21987;SDS011;11158;53.404;-1.510;2023-07-02T06:19:24;12.45;;;3.28;;
21987;SDS011;11158;53.404;-1.510;2023-07-02T06:22:08;9.40;;;3.20;;
21987;SDS011;11158;53.404;-1.510;2023-07-02T06:24:52;8.82;;;3.10;;
21987;SDS011;11158;53.404;-1.510;2023-07-02T06:27:36;9.43;;;2.45;;
21987;SDS011;11158;53.404;-1.510;2023-07-02T06:30:21;9.00;;;3.03;;
21987;SDS011;11158;53.404;-1.510;2023-07-02T06:33:05;12.98;;;3.25;;
21987;SDS011;11158;53.404;-1.510;2023-07-02T06:35:49;11.27;;;2.95;;
21987;SDS011;11158;53.404;-1.510;2023-07-02T06:38:33;11.52;;;3.60;;
21987;SDS011;11158;53.404;-1.510;2023-07-02T06:41:17;9.23;;;3.15;;
21987;SDS011;11158;53.404;-1.510;2023-07-02T06:44:02;9.10;;;3.53;;
21987;SDS011;11158;53.404;-1.510;2023-07-02T06:46:47;10.32;;;3.83;;
21987;SDS011;11158;53.404;-1.510;2023-07-02T06:49:31;8.75;;;3.17;;
21987;SDS011;11158;53.404;-1.510;2023-07-02T06:52:15;13.93;;;3.25;;
21987;SDS011;11158;53.404;-1.510;2023-07-02T06:54:59;10.15;;;3.40;;
21987;SDS011;11158;53.404;-1.510;2023-07-02T06:57:43;7.68;;;3.25;;
21987;SDS011;11158;53.404;-1.510;2023-07-02T07:00:32;8.77;;;3.22;;
21987;SDS011;11158;53.404;-1.510;2023-07-02T07:03:19;9.45;;;3.42;;
21987;SDS011;11158;53.404;-1.510;2023-07-02T07:06:03;10.60;;;3.45;;
21987;SDS011;11158;53.404;-1.510;2023-07-02T07:08:47;9.95;;;3.85;;
21987;SDS011;11158;53.404;-1.510;2023-07-02T07:11:31;9.30;;;3.20;;
21987;SDS011;11158;53.404;-1.510;2023-07-02T07:14:15;10.35;;;3.60;;
21987;SDS011;11158;53.404;-1.510;2023-07-02T07:17:00;13.10;;;4.13;;
21987;SDS011;11158;53.404;-1.510;2023-07-02T07:19:44;9.07;;;3.70;;
21987;SDS011;11158;53.404;-1.510;2023-07-02T07:22:28;11.30;;;3.63;;
21987;SDS011;11158;53.404;-1.510;2023-07-02T07:25:12;14.48;;;3.90;;
21987;SDS011;11158;53.404;-1.510;2023-07-02T07:27:57;14.68;;;3.72;;
21987;SDS011;11158;53.404;-1.510;2023-07-02T07:30:42;19.42;;;4.07;;
21987;SDS011;11158;53.404;-1.510;2023-07-02T07:33:27;9.77;;;3.63;;
21987;SDS011;11158;53.404;-1.510;2023-07-02T07:36:11;13.07;;;3.83;;
21987;SDS011;11158;53.404;-1.510;2023-07-02T07:38:55;11.98;;;3.75;;
21987;SDS011;11158;53.404;-1.510;2023-07-02T07:41:39;11.82;;;3.67;;
21987;SDS011;11158;53.404;-1.510;2023-07-02T07:44:23;9.70;;;3.60;;
21987;SDS011;11158;53.404;-1.510;2023-07-02T07:47:07;15.68;;;4.55;;
21987;SDS011;11158;53.404;-1.510;2023-07-02T07:49:51;11.45;;;3.78;;
21987;SDS011;11158;53.404;-1.510;2023-07-02T07:52:36;10.38;;;3.88;;
21987;SDS011;11158;53.404;-1.510;2023-07-02T07:55:21;8.18;;;3.67;;
21987;SDS011;11158;53.404;-1.510;2023-07-02T07:58:05;13.02;;;3.60;;
21987;SDS011;11158;53.404;-1.510;2023-07-02T08:00:49;6.85;;;2.55;;
21987;SDS011;11158;53.404;-1.510;2023-07-02T08:03:36;13.80;;;3.75;;
21987;SDS011;11158;53.404;-1.510;2023-07-02T08:06:21;13.95;;;3.85;;
21987;SDS011;11158;53.404;-1.510;2023-07-02T08:09:05;15.00;;;4.47;;
21987;SDS011;11158;53.404;-1.510;2023-07-02T08:11:49;10.57;;;3.58;;
21987;SDS011;11158;53.404;-1.510;2023-07-02T08:14:34;10.38;;;3.65;;
21987;SDS011;11158;53.404;-1.510;2023-07-02T08:17:19;13.38;;;3.35;;
21987;SDS011;11158;53.404;-1.510;2023-07-02T08:20:03;12.00;;;3.40;;
21987;SDS011;11158;53.404;-1.510;2023-07-02T08:22:48;15.77;;;5.07;;
21987;SDS011;11158;53.404;-1.510;2023-07-02T08:25:33;15.07;;;3.17;;
21987;SDS011;11158;53.404;-1.510;2023-07-02T08:28:17;9.30;;;3.03;;
21987;SDS011;11158;53.404;-1.510;2023-07-02T08:31:01;12.20;;;3.55;;
21987;SDS011;11158;53.404;-1.510;2023-07-02T08:33:45;9.60;;;3.17;;
21987;SDS011;11158;53.404;-1.510;2023-07-02T08:36:29;8.43;;;3.22;;
21987;SDS011;11158;53.404;-1.510;2023-07-02T08:39:14;10.98;;;3.08;;
21987;SDS011;11158;53.404;-1.510;2023-07-02T08:41:59;10.93;;;3.30;;
21987;SDS011;11158;53.404;-1.510;2023-07-02T08:44:46;9.45;;;3.20;;
21987;SDS011;11158;53.404;-1.510;2023-07-02T08:47:31;10.02;;;3.22;;
21987;SDS011;11158;53.404;-1.510;2023-07-02T08:50:16;10.45;;;3.13;;
21987;SDS011;11158;53.404;-1.510;2023-07-02T08:53:00;12.45;;;3.08;;
21987;SDS011;11158;53.404;-1.510;2023-07-02T08:55:44;12.57;;;3.00;;
21987;SDS011;11158;53.404;-1.510;2023-07-02T08:58:29;11.70;;;3.10;;
21987;SDS011;11158;53.404;-1.510;2023-07-02T09:01:13;10.63;;;3.08;;
21987;SDS011;11158;53.404;-1.510;2023-07-02T09:03:58;10.40;;;3.05;;
21987;SDS011;11158;53.404;-1.510;2023-07-02T09:06:50;10.55;;;3.03;;
21987;SDS011;11158;53.404;-1.510;2023-07-02T09:09:54;7.20;;;2.60;;
21987;SDS011;11158;53.404;-1.510;2023-07-02T09:12:39;9.77;;;2.97;;
21987;SDS011;11158;53.404;-1.510;2023-07-02T09:15:23;14.85;;;3.47;;
21987;SDS011;11158;53.404;-1.510;2023-07-02T09:18:14;12.60;;;3.22;;
21987;SDS011;11158;53.404;-1.510;2023-07-02T09:21:02;14.50;;;3.40;;
21987;SDS011;11158;53.404;-1.510;2023-07-02T09:23:46;10.98;;;2.65;;
21987;SDS011;11158;53.404;-1.510;2023-07-02T09:26:30;12.07;;;2.47;;
21987;SDS011;11158;53.404;-1.510;2023-07-02T09:29:16;15.10;;;3.00;;
21987;SDS011;11158;53.404;-1.510;2023-07-02T09:32:12;6.80;;;2.50;;
21987;SDS011;11158;53.404;-1.510;2023-07-02T09:34:56;9.48;;;2.83;;
21987;SDS011;11158;53.404;-1.510;2023-07-02T09:37:42;6.90;;;1.90;;
21987;SDS011;11158;53.404;-1.510;2023-07-02T09:40:27;12.00;;;2.75;;
21987;SDS011;11158;53.404;-1.510;2023-07-02T09:43:12;6.72;;;1.88;;
21987;SDS011;11158;53.404;-1.510;2023-07-02T09:45:58;7.85;;;2.53;;
21987;SDS011;11158;53.404;-1.510;2023-07-02T09:48:42;8.65;;;2.47;;
21987;SDS011;11158;53.404;-1.510;2023-07-02T09:51:26;7.68;;;2.33;;
21987;SDS011;11158;53.404;-1.510;2023-07-02T09:54:11;10.43;;;2.30;;
21987;SDS011;11158;53.404;-1.510;2023-07-02T09:56:55;4.72;;;2.15;;
21987;SDS011;11158;53.404;-1.510;2023-07-02T09:59:41;6.55;;;1.70;;
21987;SDS011;11158;53.404;-1.510;2023-07-02T10:02:26;9.38;;;2.20;;
21987;SDS011;11158;53.404;-1.510;2023-07-02T10:05:10;7.97;;;2.22;;
21987;SDS011;11158;53.404;-1.510;2023-07-02T10:07:55;7.55;;;1.98;;
21987;SDS011;11158;53.404;-1.510;2023-07-02T10:10:43;6.15;;;1.65;;
21987;SDS011;11158;53.404;-1.510;2023-07-02T10:13:27;5.32;;;1.85;;
21987;SDS011;11158;53.404;-1.510;2023-07-02T10:16:11;4.72;;;1.80;;
21987;SDS011;11158;53.404;-1.510;2023-07-02T10:19:07;6.60;;;1.67;;
21987;SDS011;11158;53.404;-1.510;2023-07-02T10:22:02;4.15;;;1.52;;
21987;SDS011;11158;53.404;-1.510;2023-07-02T10:24:54;4.30;;;1.50;;
21987;SDS011;11158;53.404;-1.510;2023-07-02T10:27:49;5.40;;;1.40;;
21987;SDS011;11158;53.404;-1.510;2023-07-02T10:30:34;5.13;;;1.30;;
21987;SDS011;11158;53.404;-1.510;2023-07-02T10:33:20;5.90;;;1.55;;
21987;SDS011;11158;53.404;-1.510;2023-07-02T10:36:04;4.00;;;1.23;;
21987;SDS011;11158;53.404;-1.510;2023-07-02T10:38:51;6.10;;;1.50;;
21987;SDS011;11158;53.404;-1.510;2023-07-02T10:41:36;3.42;;;1.30;;
21987;SDS011;11158;53.404;-1.510;2023-07-02T10:44:20;4.47;;;1.58;;
21987;SDS011;11158;53.404;-1.510;2023-07-02T10:47:05;7.80;;;1.25;;
21987;SDS011;11158;53.404;-1.510;2023-07-02T10:49:49;4.00;;;1.30;;
21987;SDS011;11158;53.404;-1.510;2023-07-02T10:52:36;7.03;;;1.65;;
21987;SDS011;11158;53.404;-1.510;2023-07-02T10:55:22;3.47;;;1.38;;
21987;SDS011;11158;53.404;-1.510;2023-07-02T10:58:08;6.03;;;1.63;;
21987;SDS011;11158;53.404;-1.510;2023-07-02T11:00:53;11.15;;;2.13;;
21987;SDS011;11158;53.404;-1.510;2023-07-02T11:03:37;6.72;;;1.77;;
21987;SDS011;11158;53.404;-1.510;2023-07-02T11:06:21;3.97;;;1.80;;
21987;SDS011;11158;53.404;-1.510;2023-07-02T11:09:14;6.53;;;2.38;;
21987;SDS011;11158;53.404;-1.510;2023-07-02T11:12:01;6.47;;;1.85;;
21987;SDS011;11158;53.404;-1.510;2023-07-02T11:14:46;4.50;;;1.77;;
21987;SDS011;11158;53.404;-1.510;2023-07-02T11:17:30;5.30;;;1.60;;
21987;SDS011;11158;53.404;-1.510;2023-07-02T11:20:14;7.80;;;1.90;;
21987;SDS011;11158;53.404;-1.510;2023-07-02T11:22:59;4.63;;;1.90;;
21987;SDS011;11158;53.404;-1.510;2023-07-02T11:25:53;5.78;;;1.50;;
21987;SDS011;11158;53.404;-1.510;2023-07-02T11:28:51;6.07;;;1.60;;
21987;SDS011;11158;53.404;-1.510;2023-07-02T11:31:41;7.05;;;1.67;;
21987;SDS011;11158;53.404;-1.510;2023-07-02T11:34:25;9.45;;;1.60;;
21987;SDS011;11158;53.404;-1.510;2023-07-02T11:37:09;5.47;;;1.40;;
21987;SDS011;11158;53.404;-1.510;2023-07-02T11:39:53;3.60;;;1.27;;
21987;SDS011;11158;53.404;-1.510;2023-07-02T11:42:37;5.82;;;1.60;;
21987;SDS011;11158;53.404;-1.510;2023-07-02T11:45:22;3.90;;;1.20;;
21987;SDS011;11158;53.404;-1.510;2023-07-02T11:48:06;5.22;;;1.27;;
21987;SDS011;11158;53.404;-1.510;2023-07-02T11:50:50;3.97;;;1.20;;
21987;SDS011;11158;53.404;-1.510;2023-07-02T11:53:34;3.25;;;1.05;;
21987;SDS011;11158;53.404;-1.510;2023-07-02T11:56:18;6.15;;;1.35;;
21987;SDS011;11158;53.404;-1.510;2023-07-02T11:59:02;5.30;;;1.90;;
21987;SDS011;11158;53.404;-1.510;2023-07-02T12:01:46;4.68;;;1.52;;
21987;SDS011;11158;53.404;-1.510;2023-07-02T12:04:30;8.32;;;1.70;;
21987;SDS011;11158;53.404;-1.510;2023-07-02T12:07:14;5.55;;;1.60;;
21987;SDS011;11158;53.404;-1.510;2023-07-02T12:09:58;8.30;;;1.80;;
21987;SDS011;11158;53.404;-1.510;2023-07-02T12:12:42;10.00;;;2.25;;
21987;SDS011;11158;53.404;-1.510;2023-07-02T12:15:26;7.22;;;1.92;;
21987;SDS011;11158;53.404;-1.510;2023-07-02T12:18:11;7.47;;;2.22;;
21987;SDS011;11158;53.404;-1.510;2023-07-02T12:20:55;7.00;;;1.77;;
21987;SDS011;11158;53.404;-1.510;2023-07-02T12:23:39;6.97;;;2.05;;
21987;SDS011;11158;53.404;-1.510;2023-07-02T12:26:29;5.43;;;1.55;;
21987;SDS011;11158;53.404;-1.510;2023-07-02T12:29:13;9.18;;;2.13;;
21987;SDS011;11158;53.404;-1.510;2023-07-02T12:31:57;6.72;;;1.83;;
21987;SDS011;11158;53.404;-1.510;2023-07-02T12:34:41;7.00;;;2.28;;
21987;SDS011;11158;53.404;-1.510;2023-07-02T12:37:26;10.43;;;1.85;;
21987;SDS011;11158;53.404;-1.510;2023-07-02T12:40:10;10.40;;;2.13;;
21987;SDS011;11158;53.404;-1.510;2023-07-02T12:42:55;6.30;;;1.70;;
21987;SDS011;11158;53.404;-1.510;2023-07-02T12:45:40;7.38;;;2.10;;
21987;SDS011;11158;53.404;-1.510;2023-07-02T12:48:24;5.45;;;1.60;;
21987;SDS011;11158;53.404;-1.510;2023-07-02T12:51:10;8.40;;;2.00;;
21987;SDS011;11158;53.404;-1.510;2023-07-02T12:53:54;10.35;;;2.33;;
21987;SDS011;11158;53.404;-1.510;2023-07-02T12:56:38;5.18;;;2.00;;
21987;SDS011;11158;53.404;-1.510;2023-07-02T12:59:23;5.60;;;1.38;;
21987;SDS011;11158;53.404;-1.510;2023-07-02T13:02:07;5.88;;;1.85;;
21987;SDS011;11158;53.404;-1.510;2023-07-02T13:04:53;4.85;;;1.20;;
21987;SDS011;11158;53.404;-1.510;2023-07-02T13:07:37;5.10;;;1.75;;
21987;SDS011;11158;53.404;-1.510;2023-07-02T13:10:21;4.15;;;1.60;;
21987;SDS011;11158;53.404;-1.510;2023-07-02T13:13:06;11.10;;;2.15;;
21987;SDS011;11158;53.404;-1.510;2023-07-02T13:15:50;6.40;;;1.73;;
21987;SDS011;11158;53.404;-1.510;2023-07-02T13:18:35;5.60;;;1.80;;
21987;SDS011;11158;53.404;-1.510;2023-07-02T13:21:19;4.85;;;1.50;;
21987;SDS011;11158;53.404;-1.510;2023-07-02T13:24:04;6.25;;;2.00;;
21987;SDS011;11158;53.404;-1.510;2023-07-02T13:26:48;4.05;;;1.25;;
21987;SDS011;11158;53.404;-1.510;2023-07-02T13:29:33;5.00;;;1.50;;
21987;SDS011;11158;53.404;-1.510;2023-07-02T13:32:17;5.68;;;1.80;;
21987;SDS011;11158;53.404;-1.510;2023-07-02T13:35:01;5.40;;;1.45;;
21987;SDS011;11158;53.404;-1.510;2023-07-02T13:37:45;4.80;;;1.52;;
21987;SDS011;11158;53.404;-1.510;2023-07-02T13:40:29;7.05;;;1.52;;
21987;SDS011;11158;53.404;-1.510;2023-07-02T13:43:14;6.68;;;1.88;;
21987;SDS011;11158;53.404;-1.510;2023-07-02T13:46:01;4.88;;;1.58;;
21987;SDS011;11158;53.404;-1.510;2023-07-02T13:48:46;8.27;;;1.58;;
21987;SDS011;11158;53.404;-1.510;2023-07-02T13:51:31;4.93;;;1.38;;
21987;SDS011;11158;53.404;-1.510;2023-07-02T13:54:15;4.78;;;1.50;;
21987;SDS011;11158;53.404;-1.510;2023-07-02T13:57:00;4.43;;;1.80;;
21987;SDS011;11158;53.404;-1.510;2023-07-02T13:59:48;4.40;;;1.50;;
21987;SDS011;11158;53.404;-1.510;2023-07-02T14:02:32;6.13;;;1.67;;
21987;SDS011;11158;53.404;-1.510;2023-07-02T14:05:16;6.20;;;1.55;;
21987;SDS011;11158;53.404;-1.510;2023-07-02T14:08:01;5.40;;;1.55;;
21987;SDS011;11158;53.404;-1.510;2023-07-02T14:10:45;3.13;;;1.33;;
21987;SDS011;11158;53.404;-1.510;2023-07-02T14:13:29;5.80;;;1.83;;
21987;SDS011;11158;53.404;-1.510;2023-07-02T14:16:13;5.78;;;1.70;;
21987;SDS011;11158;53.404;-1.510;2023-07-02T14:18:58;4.43;;;1.15;;
21987;SDS011;11158;53.404;-1.510;2023-07-02T14:21:42;8.23;;;1.70;;
21987;SDS011;11158;53.404;-1.510;2023-07-02T14:24:26;4.68;;;1.40;;
21987;SDS011;11158;53.404;-1.510;2023-07-02T14:27:10;3.35;;;1.30;;
21987;SDS011;11158;53.404;-1.510;2023-07-02T14:29:54;7.15;;;1.48;;
21987;SDS011;11158;53.404;-1.510;2023-07-02T14:32:38;3.88;;;1.27;;
21987;SDS011;11158;53.404;-1.510;2023-07-02T14:35:22;3.90;;;1.23;;
21987;SDS011;11158;53.404;-1.510;2023-07-02T14:38:11;4.55;;;1.50;;
21987;SDS011;11158;53.404;-1.510;2023-07-02T14:40:55;5.45;;;1.30;;
21987;SDS011;11158;53.404;-1.510;2023-07-02T14:43:40;3.25;;;1.20;;
21987;SDS011;11158;53.404;-1.510;2023-07-02T14:46:24;2.67;;;1.10;;
21987;SDS011;11158;53.404;-1.510;2023-07-02T14:49:08;4.45;;;1.40;;
21987;SDS011;11158;53.404;-1.510;2023-07-02T14:51:53;4.70;;;1.50;;
21987;SDS011;11158;53.404;-1.510;2023-07-02T14:54:36;2.97;;;1.17;;
21987;SDS011;11158;53.404;-1.510;2023-07-02T14:57:21;4.43;;;1.50;;
21987;SDS011;11158;53.404;-1.510;2023-07-02T15:00:06;6.93;;;1.40;;
21987;SDS011;11158;53.404;-1.510;2023-07-02T15:02:51;6.50;;;1.55;;
21987;SDS011;11158;53.404;-1.510;2023-07-02T15:05:35;4.60;;;1.13;;
21987;SDS011;11158;53.404;-1.510;2023-07-02T15:08:20;4.90;;;1.20;;
21987;SDS011;11158;53.404;-1.510;2023-07-02T15:11:05;5.50;;;1.40;;
21987;SDS011;11158;53.404;-1.510;2023-07-02T15:13:50;4.97;;;1.40;;
21987;SDS011;11158;53.404;-1.510;2023-07-02T15:16:34;5.32;;;1.58;;
21987;SDS011;11158;53.404;-1.510;2023-07-02T15:19:18;5.07;;;1.23;;
21987;SDS011;11158;53.404;-1.510;2023-07-02T15:22:03;6.15;;;1.25;;
21987;SDS011;11158;53.404;-1.510;2023-07-02T15:24:47;4.30;;;1.30;;
21987;SDS011;11158;53.404;-1.510;2023-07-02T15:27:31;5.80;;;1.00;;
21987;SDS011;11158;53.404;-1.510;2023-07-02T15:30:15;3.65;;;1.30;;
21987;SDS011;11158;53.404;-1.510;2023-07-02T15:32:59;3.67;;;1.13;;
21987;SDS011;11158;53.404;-1.510;2023-07-02T15:35:44;3.42;;;1.10;;
21987;SDS011;11158;53.404;-1.510;2023-07-02T15:38:29;7.88;;;1.02;;
21987;SDS011;11158;53.404;-1.510;2023-07-02T15:41:14;3.25;;;0.98;;
21987;SDS011;11158;53.404;-1.510;2023-07-02T15:44:00;3.95;;;1.20;;
21987;SDS011;11158;53.404;-1.510;2023-07-02T15:46:47;5.25;;;1.30;;
21987;SDS011;11158;53.404;-1.510;2023-07-02T15:49:31;4.53;;;1.13;;
21987;SDS011;11158;53.404;-1.510;2023-07-02T15:52:15;3.30;;;1.27;;
21987;SDS011;11158;53.404;-1.510;2023-07-02T15:55:00;5.93;;;1.40;;
21987;SDS011;11158;53.404;-1.510;2023-07-02T15:57:44;3.35;;;1.20;;
21987;SDS011;11158;53.404;-1.510;2023-07-02T16:00:28;4.65;;;1.52;;
21987;SDS011;11158;53.404;-1.510;2023-07-02T16:03:12;3.67;;;1.58;;
21987;SDS011;11158;53.404;-1.510;2023-07-02T16:05:59;5.55;;;1.33;;
21987;SDS011;11158;53.404;-1.510;2023-07-02T16:08:43;6.07;;;1.73;;
21987;SDS011;11158;53.404;-1.510;2023-07-02T16:11:28;7.13;;;1.75;;